Time;durP1;ratioP1;P1;durP2;ratioP2;P2;SDS_P1;SDS_P2;PMS_P1;PMS_P2;Temp;Humidity;BMP_temperature;BMP_pressure;BME280_temperature;BME280_humidity;BME280_pressure;Samples;Min_cycle;Max_cycle;Signal;HPM_P1;HPM_P2
2023/11/23 00:01:47;;;;;;;14.70;7.97;;;4.90;99.90;;;;;;5070191;28;20010;-78
2023/11/23 00:04:16;;;;;;;13.13;6.53;;;5.10;99.90;;;;;;5071997;28;20013;-81
2023/11/23 00:06:50;;;;;;;16.97;7.27;;;5.20;99.90;;;;;;5067940;28;20021;-83
2023/11/23 00:09:24;;;;;;;12.97;7.00;;;5.30;99.90;;;;;;5077259;28;20115;-83
2023/11/23 00:11:50;;;;;;;11.53;7.50;;;5.20;99.90;;;;;;5068343;28;20010;-83
2023/11/23 00:14:18;;;;;;;14.20;6.80;;;5.30;99.90;;;;;;5075742;28;20044;-84
2023/11/23 00:16:44;;;;;;;13.33;6.80;;;5.10;99.90;;;;;;5072289;28;20025;-80
2023/11/23 00:19:10;;;;;;;9.87;6.07;;;5.20;99.90;;;;;;5068259;28;20040;-77
2023/11/23 00:21:45;;;;;;;12.17;6.47;;;5.20;99.90;;;;;;5082633;28;20025;-79
2023/11/23 00:24:11;;;;;;;13.50;7.13;;;5.40;99.90;;;;;;5070311;28;20021;-77
2023/11/23 00:26:40;;;;;;;13.50;6.00;;;5.30;99.90;;;;;;5065173;28;20060;-81
2023/11/23 00:29:06;;;;;;;12.07;6.53;;;5.50;99.90;;;;;;5065547;28;20024;-79
2023/11/23 00:31:32;;;;;;;10.20;6.10;;;5.40;99.90;;;;;;5067379;28;20025;-79
2023/11/23 00:34:00;;;;;;;14.63;7.63;;;5.40;99.90;;;;;;5066602;28;20036;-78
2023/11/23 00:36:28;;;;;;;10.07;6.10;;;5.40;99.90;;;;;;5069444;28;20140;-78
2023/11/23 00:38:56;;;;;;;15.73;7.37;;;5.50;99.90;;;;;;5065643;28;20031;-79
2023/11/23 00:41:28;;;;;;;11.93;6.17;;;5.40;99.90;;;;;;5063388;28;20077;-76
2023/11/23 00:43:54;;;;;;;18.07;7.00;;;5.40;99.90;;;;;;5069936;28;20049;-77
2023/11/23 00:46:24;;;;;;;10.80;6.83;;;5.40;99.90;;;;;;5070538;28;20041;-78
2023/11/23 00:48:55;;;;;;;17.77;7.13;;;5.50;99.90;;;;;;5068570;28;20009;-79
2023/11/23 00:51:26;;;;;;;11.87;6.60;;;5.30;99.90;;;;;;5066253;28;20056;-78
2023/11/23 00:53:55;;;;;;;11.37;5.93;;;5.40;99.90;;;;;;5065654;28;20109;-77
2023/11/23 00:56:24;;;;;;;12.33;6.80;;;5.40;99.90;;;;;;5068878;28;20032;-78
2023/11/23 00:58:51;;;;;;;11.77;6.53;;;5.50;99.90;;;;;;5069662;28;20120;-79
2023/11/23 01:01:20;;;;;;;17.20;7.23;;;5.50;99.90;;;;;;5067156;28;20021;-79
2023/11/23 01:03:45;;;;;;;16.57;7.23;;;5.40;99.90;;;;;;5065210;28;20017;-79
2023/11/23 01:06:18;;;;;;;13.93;6.80;;;5.50;99.90;;;;;;5065869;28;21386;-78
2023/11/23 01:08:50;;;;;;;11.53;6.80;;;5.50;99.90;;;;;;5065767;28;20052;-77
2023/11/23 01:11:16;;;;;;;15.70;6.87;;;5.70;99.90;;;;;;5067238;28;20025;-79
2023/11/23 01:13:42;;;;;;;13.20;6.83;;;5.70;99.90;;;;;;5062429;28;20097;-80
2023/11/23 01:16:10;;;;;;;11.50;6.37;;;5.80;99.90;;;;;;5064347;28;20021;-78
2023/11/23 01:18:36;;;;;;;17.13;6.73;;;5.80;99.90;;;;;;5069560;28;20025;-80
2023/11/23 01:21:11;;;;;;;12.27;6.27;;;5.80;99.90;;;;;;5070221;28;20048;-78
2023/11/23 01:23:37;;;;;;;11.23;6.20;;;5.90;99.90;;;;;;5069596;28;20032;-79
2023/11/23 01:26:03;;;;;;;14.00;6.07;;;5.90;99.90;;;;;;5071189;28;20018;-77
2023/11/23 01:28:29;;;;;;;13.80;6.30;;;6.20;99.90;;;;;;5073154;28;20025;-78
2023/11/23 01:30:54;;;;;;;15.97;6.83;;;6.30;99.90;;;;;;5068409;28;20044;-80
2023/11/23 01:33:22;;;;;;;22.77;7.27;;;6.20;99.90;;;;;;5067160;28;20088;-78
2023/11/23 01:35:48;;;;;;;15.20;6.90;;;6.50;99.90;;;;;;5068590;28;20133;-80
2023/11/23 01:38:17;;;;;;;18.40;8.57;;;6.40;99.90;;;;;;5070236;28;20036;-79
2023/11/23 01:40:46;;;;;;;14.90;8.20;;;6.60;99.90;;;;;;5070868;28;20051;-80
2023/11/23 01:43:21;;;;;;;21.17;8.30;;;6.60;99.90;;;;;;5068355;28;20117;-79
2023/11/23 01:45:49;;;;;;;14.43;8.03;;;6.60;99.90;;;;;;5066999;28;20041;-77
2023/11/23 01:48:20;;;;;;;20.07;8.67;;;6.60;99.90;;;;;;5074774;28;20033;-76
2023/11/23 01:50:52;;;;;;;18.40;8.00;;;6.70;99.90;;;;;;5070200;28;20067;-78
2023/11/23 01:53:20;;;;;;;16.55;8.10;;;6.80;99.90;;;;;;5070321;28;20037;-78
2023/11/23 01:55:49;;;;;;;20.50;9.30;;;6.70;99.90;;;;;;5068015;28;20024;-77
2023/11/23 01:58:21;;;;;;;20.13;9.23;;;6.80;99.90;;;;;;5072938;28;20017;-77
2023/11/23 02:00:54;;;;;;;16.60;7.55;;;6.70;99.90;;;;;;5086056;28;20021;-80
2023/11/23 02:03:21;;;;;;;19.95;10.27;;;6.80;99.90;;;;;;5071664;28;20033;-76
2023/11/23 02:05:47;;;;;;;20.10;8.57;;;6.70;99.90;;;;;;5070242;28;20009;-77
2023/11/23 02:08:12;;;;;;;16.90;8.90;;;6.70;99.90;;;;;;5069742;28;20023;-77
2023/11/23 02:10:38;;;;;;;26.83;9.50;;;6.90;99.90;;;;;;5069220;28;20037;-76
2023/11/23 02:13:07;;;;;;;17.90;9.33;;;7.10;99.90;;;;;;5068058;28;20083;-79
2023/11/23 02:15:35;;;;;;;17.37;9.33;;;6.90;99.90;;;;;;5067679;28;20043;-78
2023/11/23 02:18:25;;;;;;;22.13;10.20;;;6.70;99.90;;;;;;5070755;28;20030;-79
2023/11/23 02:21:00;;;;;;;18.30;10.47;;;6.80;99.90;;;;;;5066638;28;20097;-78
2023/11/23 02:23:31;;;;;;;19.10;9.83;;;6.80;99.90;;;;;;5070423;28;20013;-79
2023/11/23 02:26:00;;;;;;;18.43;9.07;;;6.80;99.90;;;;;;5069626;28;20021;-78
2023/11/23 02:28:29;;;;;;;17.90;10.53;;;6.80;99.90;;;;;;5066541;28;20029;-78
2023/11/23 02:30:57;;;;;;;20.40;9.67;;;6.80;99.90;;;;;;5066501;28;20067;-78
2023/11/23 02:33:23;;;;;;;18.87;9.67;;;6.90;99.90;;;;;;5069161;28;20029;-79
2023/11/23 02:35:48;;;;;;;19.13;10.83;;;6.90;99.90;;;;;;5066923;28;20025;-78
2023/11/23 02:38:22;;;;;;;21.90;10.73;;;6.80;99.90;;;;;;5067910;28;20036;-78
2023/11/23 02:41:01;;;;;;;17.90;10.17;;;6.70;99.90;;;;;;5066394;28;20025;-78
2023/11/23 02:43:29;;;;;;;22.40;10.77;;;6.90;99.90;;;;;;5065097;28;20008;-77
2023/11/23 02:46:00;;;;;;;28.63;10.87;;;6.90;99.90;;;;;;5068534;28;20029;-78
2023/11/23 02:48:29;;;;;;;20.43;11.47;;;6.90;99.90;;;;;;5068599;28;20080;-76
2023/11/23 02:50:55;;;;;;;21.63;11.67;;;6.90;99.90;;;;;;5072821;28;20032;-79
2023/11/23 02:53:31;;;;;;;19.50;10.53;;;6.80;99.90;;;;;;5072068;28;20040;-77
2023/11/23 02:55:57;;;;;;;23.50;11.77;;;6.80;99.90;;;;;;5067553;28;20056;-78
2023/11/23 02:58:23;;;;;;;27.33;12.70;;;6.90;99.90;;;;;;5067817;28;20392;-77
2023/11/23 03:00:51;;;;;;;24.50;11.60;;;7.10;99.90;;;;;;5067999;28;20028;-77
2023/11/23 03:03:18;;;;;;;24.07;12.07;;;7.20;99.90;;;;;;5072733;28;20029;-79
2023/11/23 03:05:50;;;;;;;20.97;11.13;;;7.00;99.90;;;;;;5067514;28;20029;-78
2023/11/23 03:08:21;;;;;;;27.97;12.43;;;7.10;99.90;;;;;;5069042;28;20040;-80
2023/11/23 03:10:50;;;;;;;25.70;11.30;;;7.30;99.90;;;;;;5066696;28;20037;-78
2023/11/23 03:13:18;;;;;;;20.13;10.77;;;7.10;99.90;;;;;;5069737;28;20155;-77
2023/11/23 03:15:43;;;;;;;20.17;10.83;;;7.30;99.90;;;;;;5083884;28;20013;-76
2023/11/23 03:18:09;;;;;;;24.33;12.07;;;7.30;99.90;;;;;;5084998;28;20052;-77
2023/11/23 03:20:47;;;;;;;23.30;11.87;;;7.30;99.90;;;;;;5068398;28;20041;-77
2023/11/23 03:23:13;;;;;;;22.50;11.40;;;7.20;99.90;;;;;;5064302;28;20039;-78
2023/11/23 03:25:39;;;;;;;22.37;11.73;;;7.20;99.90;;;;;;5066852;28;20013;-77
2023/11/23 03:28:10;;;;;;;23.87;12.37;;;7.10;99.90;;;;;;5067380;28;20044;-78
2023/11/23 03:30:36;;;;;;;21.83;12.10;;;7.30;99.90;;;;;;5067166;28;20040;-77
2023/11/23 03:33:02;;;;;;;19.83;11.33;;;7.20;99.90;;;;;;5065919;28;20031;-78
2023/11/23 03:35:28;;;;;;;23.40;11.20;;;7.20;99.90;;;;;;5065520;28;20021;-79
2023/11/23 03:37:53;;;;;;;20.30;11.83;;;7.30;99.90;;;;;;5069539;28;20087;-78
2023/11/23 03:40:21;;;;;;;22.40;11.97;;;7.50;99.90;;;;;;5067532;28;20059;-77
2023/11/23 03:42:47;;;;;;;23.63;12.00;;;7.30;99.90;;;;;;5070463;28;20040;-78
2023/11/23 03:45:13;;;;;;;23.03;12.30;;;7.30;99.90;;;;;;5065822;28;20013;-78
2023/11/23 03:47:38;;;;;;;24.77;12.63;;;7.40;99.90;;;;;;5066609;28;20009;-79
2023/11/23 03:50:05;;;;;;;19.67;10.93;;;7.50;99.90;;;;;;5065869;28;20036;-78
2023/11/23 03:52:33;;;;;;;23.00;12.17;;;7.50;99.90;;;;;;5064471;28;20494;-77
2023/11/23 03:54:59;;;;;;;21.87;10.83;;;7.60;99.90;;;;;;5064969;28;20080;-79
2023/11/23 03:57:25;;;;;;;21.93;11.53;;;7.60;99.90;;;;;;5067731;28;20033;-78
2023/11/23 03:59:50;;;;;;;21.13;11.37;;;7.40;99.90;;;;;;5068173;28;20017;-77
2023/11/23 04:02:19;;;;;;;20.30;11.60;;;7.60;99.90;;;;;;5067634;28;20036;-78
2023/11/23 04:04:45;;;;;;;20.77;12.03;;;7.60;99.90;;;;;;5067958;28;20035;-80
2023/11/23 04:07:10;;;;;;;19.33;11.33;;;7.50;99.90;;;;;;5067048;28;20029;-79
2023/11/23 04:09:36;;;;;;;18.97;11.27;;;7.70;99.90;;;;;;5067518;28;20013;-77
2023/11/23 04:12:02;;;;;;;22.30;10.97;;;7.50;99.90;;;;;;5065870;28;20040;-77
2023/11/23 04:14:30;;;;;;;20.00;12.00;;;7.70;99.90;;;;;;5065842;28;20039;-77
2023/11/23 04:16:59;;;;;;;24.40;12.40;;;7.60;99.90;;;;;;5066156;28;20008;-77
2023/11/23 04:19:27;;;;;;;19.97;11.23;;;7.60;99.90;;;;;;5064968;28;20083;-77
2023/11/23 04:21:55;;;;;;;21.27;12.63;;;7.70;99.90;;;;;;5065057;28;20022;-78
2023/11/23 04:24:24;;;;;;;23.67;12.53;;;7.70;99.90;;;;;;5068591;28;20040;-78
2023/11/23 04:26:51;;;;;;;26.37;12.70;;;7.70;99.90;;;;;;5067925;28;20035;-77
2023/11/23 04:29:24;;;;;;;22.47;12.83;;;7.70;99.90;;;;;;5064922;28;20053;-79
2023/11/23 04:31:50;;;;;;;26.33;12.07;;;7.80;99.90;;;;;;5066506;28;20079;-78
2023/11/23 04:34:18;;;;;;;19.50;11.70;;;7.80;99.90;;;;;;5081117;28;20025;-78
2023/11/23 04:36:51;;;;;;;23.13;12.37;;;7.90;99.90;;;;;;5068672;28;20028;-78
2023/11/23 04:39:18;;;;;;;26.17;13.57;;;7.90;99.90;;;;;;5065085;28;20048;-79
2023/11/23 04:41:46;;;;;;;20.00;11.83;;;7.80;99.90;;;;;;5068597;28;20105;-80
2023/11/23 04:44:13;;;;;;;22.20;13.10;;;7.80;99.90;;;;;;5075934;28;20029;-78
2023/11/23 04:46:44;;;;;;;23.73;13.87;;;7.80;99.90;;;;;;5064447;28;20016;-78
2023/11/23 04:49:10;;;;;;;22.23;13.13;;;7.90;99.90;;;;;;5076448;28;20014;-78
2023/11/23 04:51:36;;;;;;;22.50;14.00;;;7.90;99.90;;;;;;5071125;28;20056;-80
2023/11/23 04:54:09;;;;;;;33.67;13.43;;;7.90;99.90;;;;;;5075485;28;20024;-80
2023/11/23 04:56:37;;;;;;;24.17;13.73;;;7.90;99.90;;;;;;5071307;28;20088;-80
2023/11/23 04:59:05;;;;;;;29.40;13.67;;;7.90;99.90;;;;;;5154249;22;20034;-78
2023/11/23 05:01:33;;;;;;;21.97;13.87;;;8.00;99.90;;;;;;5052066;28;20018;-82
2023/11/23 05:04:02;;;;;;;26.90;13.30;;;8.00;99.90;;;;;;5060063;28;20022;-79
2023/11/23 05:06:27;;;;;;;23.57;12.50;;;7.90;99.90;;;;;;5057590;28;20052;-80
2023/11/23 05:08:56;;;;;;;25.33;13.63;;;8.00;99.90;;;;;;5059494;28;20081;-80
2023/11/23 05:11:27;;;;;;;32.37;15.30;;;8.00;99.90;;;;;;5059980;28;20097;-77
2023/11/23 05:13:52;;;;;;;27.13;14.10;;;8.10;99.90;;;;;;5059394;28;20021;-79
2023/11/23 05:16:18;;;;;;;27.40;14.27;;;8.00;99.90;;;;;;5060259;28;20041;-80
2023/11/23 05:18:44;;;;;;;28.40;14.97;;;8.10;99.90;;;;;;5060136;28;20017;-79
2023/11/23 05:21:17;;;;;;;23.43;14.40;;;8.20;99.90;;;;;;5065175;28;20073;-82
2023/11/23 05:23:45;;;;;;;27.20;16.07;;;8.20;99.90;;;;;;5052219;28;20010;-81
2023/11/23 05:26:11;;;;;;;26.37;15.20;;;8.20;99.90;;;;;;5056219;28;20040;-81
2023/11/23 05:28:41;;;;;;;25.17;14.23;;;8.20;99.90;;;;;;5059784;28;20028;-79
2023/11/23 05:31:07;;;;;;;26.27;14.43;;;8.20;99.90;;;;;;5060014;28;20041;-79
2023/11/23 05:33:33;;;;;;;25.60;14.27;;;8.10;99.90;;;;;;5059956;28;20018;-81
2023/11/23 05:35:58;;;;;;;23.33;14.23;;;8.20;99.90;;;;;;5059416;28;20109;-79
2023/11/23 05:38:25;;;;;;;28.97;14.60;;;8.10;99.90;;;;;;5056541;28;20033;-83
2023/11/23 05:40:54;;;;;;;24.13;13.13;;;8.10;99.90;;;;;;5058179;28;20037;-81
2023/11/23 05:43:24;;;;;;;23.80;14.67;;;8.20;99.90;;;;;;5062109;28;20068;-81
2023/11/23 05:45:52;;;;;;;22.20;13.57;;;8.30;99.90;;;;;;5078375;28;20010;-80
2023/11/23 05:48:28;;;;;;;24.10;14.20;;;8.20;99.90;;;;;;5055244;28;20034;-79
2023/11/23 05:50:58;;;;;;;26.90;16.73;;;8.20;99.90;;;;;;5073448;28;20013;-79
2023/11/23 05:53:24;;;;;;;25.80;13.17;;;8.20;99.90;;;;;;5059668;28;20096;-80
2023/11/23 05:55:50;;;;;;;29.80;14.53;;;8.10;99.90;;;;;;5059389;28;20032;-80
2023/11/23 05:58:18;;;;;;;29.47;15.70;;;8.10;99.90;;;;;;5059027;28;20029;-83
2023/11/23 06:00:46;;;;;;;26.17;14.93;;;8.10;99.90;;;;;;5059450;28;20025;-78
2023/11/23 06:03:17;;;;;;;25.63;14.17;;;8.20;99.90;;;;;;5058907;28;20013;-80
2023/11/23 06:05:42;;;;;;;31.80;16.07;;;8.30;99.90;;;;;;5053154;28;20014;-78
2023/11/23 06:08:08;;;;;;;26.03;15.30;;;8.20;99.90;;;;;;5054718;28;20025;-81
2023/11/23 06:10:34;;;;;;;27.63;16.73;;;8.40;99.90;;;;;;5061558;28;20018;-78
2023/11/23 06:13:05;;;;;;;25.30;15.37;;;8.30;99.90;;;;;;5056802;28;20029;-80
2023/11/23 06:15:33;;;;;;;27.10;15.53;;;8.30;99.90;;;;;;5072341;28;20096;-81
2023/11/23 06:17:59;;;;;;;23.60;14.83;;;8.30;99.90;;;;;;5056085;28;20022;-78
2023/11/23 06:20:27;;;;;;;27.30;16.00;;;8.40;99.90;;;;;;5054497;28;20102;-80
2023/11/23 06:22:55;;;;;;;25.33;15.77;;;8.40;99.90;;;;;;5066199;28;20041;-79
2023/11/23 06:25:23;;;;;;;28.03;15.07;;;8.40;99.90;;;;;;5065656;28;20009;-77
2023/11/23 06:27:49;;;;;;;25.80;15.13;;;8.50;99.90;;;;;;5067211;28;20060;-79
2023/11/23 06:30:14;;;;;;;30.37;15.87;;;8.50;99.90;;;;;;5050517;28;20014;-78
2023/11/23 06:32:40;;;;;;;24.50;14.93;;;8.50;99.90;;;;;;5065892;28;20038;-79
2023/11/23 06:35:11;;;;;;;22.50;14.87;;;8.40;99.90;;;;;;5052401;28;20037;-78
2023/11/23 06:37:42;;;;;;;26.13;14.87;;;8.40;99.90;;;;;;5053865;28;20029;-79
2023/11/23 06:40:11;;;;;;;25.60;14.00;;;8.50;99.90;;;;;;5052858;28;20048;-80
2023/11/23 06:42:51;;;;;;;28.10;16.33;;;8.50;99.90;;;;;;5064954;28;20049;-79
2023/11/23 06:45:18;;;;;;;24.03;15.50;;;8.60;99.90;;;;;;5064567;28;20019;-80
2023/11/23 06:47:46;;;;;;;27.33;15.97;;;8.40;99.90;;;;;;5051625;28;20021;-79
2023/11/23 06:50:13;;;;;;;25.93;15.87;;;8.50;99.90;;;;;;5073838;28;20014;-78
2023/11/23 06:52:38;;;;;;;30.50;15.43;;;8.50;99.90;;;;;;5058033;28;20624;-79
2023/11/23 06:55:13;;;;;;;28.37;15.57;;;8.60;99.90;;;;;;5070314;28;20037;-79
2023/11/23 06:57:50;;;;;;;29.30;16.13;;;8.50;99.90;;;;;;5058106;28;20044;-81
2023/11/23 07:00:22;;;;;;;25.57;15.63;;;8.60;99.90;;;;;;5052758;28;20017;-79
2023/11/23 07:03:01;;;;;;;27.00;15.93;;;8.60;99.90;;;;;;5055157;28;20044;-79
2023/11/23 07:05:30;;;;;;;27.20;16.07;;;8.60;99.90;;;;;;5061035;28;20055;-80
2023/11/23 07:07:56;;;;;;;25.37;14.77;;;8.70;99.90;;;;;;5065571;28;20105;-79
2023/11/23 07:10:33;;;;;;;25.47;14.63;;;8.70;99.90;;;;;;5076398;28;20034;-79
2023/11/23 07:13:03;;;;;;;30.33;16.10;;;8.80;99.90;;;;;;5054653;28;20025;-79
2023/11/23 07:15:36;;;;;;;29.20;16.03;;;8.60;99.90;;;;;;5070749;28;20037;-80
2023/11/23 07:18:10;;;;;;;28.27;16.97;;;8.70;99.90;;;;;;5059219;28;20085;-79
2023/11/23 07:20:36;;;;;;;25.80;16.23;;;8.70;99.90;;;;;;5059059;28;20022;-79
2023/11/23 07:23:09;;;;;;;28.33;15.07;;;8.60;99.90;;;;;;5071397;28;20017;-78
2023/11/23 07:25:41;;;;;;;25.20;14.80;;;8.80;99.90;;;;;;5056320;28;20072;-79
2023/11/23 07:28:13;;;;;;;25.30;15.00;;;8.90;99.90;;;;;;5057081;28;20042;-79
2023/11/23 07:30:48;;;;;;;26.70;15.67;;;8.80;99.90;;;;;;5056924;28;20061;-78
2023/11/23 07:33:19;;;;;;;31.27;16.50;;;8.70;99.90;;;;;;5056347;28;20025;-80
2023/11/23 07:35:51;;;;;;;30.60;15.87;;;8.70;99.90;;;;;;5072624;28;20044;-79
2023/11/23 07:38:24;;;;;;;27.87;15.87;;;8.70;99.90;;;;;;5070984;28;20013;-79
2023/11/23 07:40:57;;;;;;;26.87;15.83;;;8.90;99.90;;;;;;5067925;28;20022;-78
2023/11/23 07:43:23;;;;;;;22.00;13.70;;;8.90;99.90;;;;;;5057856;28;20017;-79
2023/11/23 07:45:54;;;;;;;27.47;15.20;;;9.00;99.90;;;;;;5051181;28;20030;-81
2023/11/23 07:48:19;;;;;;;22.50;14.83;;;9.00;99.90;;;;;;5053343;28;20438;-77
2023/11/23 07:50:48;;;;;;;25.47;15.37;;;9.00;99.90;;;;;;5056668;28;20053;-78
2023/11/23 07:53:15;;;;;;;23.13;13.57;;;9.00;99.90;;;;;;5066393;28;20014;-79
2023/11/23 07:55:47;;;;;;;25.37;14.87;;;9.00;99.90;;;;;;5055824;28;20033;-79
2023/11/23 07:58:13;;;;;;;25.20;12.63;;;9.00;99.90;;;;;;5055934;28;20105;-80
2023/11/23 08:00:59;;;;;;;28.97;15.07;;;9.00;99.90;;;;;;5050814;28;20288;-79
2023/11/23 08:03:26;;;;;;;27.30;15.03;;;9.10;99.90;;;;;;5056410;28;20025;-78
2023/11/23 08:05:53;;;;;;;30.33;16.40;;;9.10;99.90;;;;;;5065846;28;20024;-80
2023/11/23 08:08:26;;;;;;;26.30;15.47;;;9.10;99.90;;;;;;5055075;28;20498;-79
2023/11/23 08:10:54;;;;;;;25.50;14.17;;;9.10;99.90;;;;;;5054589;28;20049;-79
2023/11/23 08:13:20;;;;;;;25.53;14.77;;;9.20;99.90;;;;;;5054728;28;20017;-79
2023/11/23 08:15:46;;;;;;;23.07;13.97;;;9.10;99.90;;;;;;5053908;28;20033;-78
2023/11/23 08:18:18;;;;;;;23.00;14.33;;;9.10;99.90;;;;;;5054236;28;20021;-78
2023/11/23 08:20:51;;;;;;;30.85;14.73;;;9.20;99.90;;;;;;5053642;28;20094;-78
2023/11/23 08:23:27;;;;;;;30.03;14.30;;;9.20;99.90;;;;;;5055680;28;20107;-78
2023/11/23 08:25:53;;;;;;;25.33;15.30;;;9.20;99.90;;;;;;5053158;28;20052;-78
2023/11/23 08:28:22;;;;;;;24.73;14.10;;;9.20;99.90;;;;;;5070682;28;20085;-77
2023/11/23 08:30:52;;;;;;;27.07;15.30;;;9.30;99.90;;;;;;5058615;28;20060;-78
2023/11/23 08:33:18;;;;;;;25.13;14.63;;;9.30;99.90;;;;;;5059305;28;20029;-79
2023/11/23 08:35:44;;;;;;;24.67;13.30;;;9.40;99.90;;;;;;5070511;28;20028;-79
2023/11/23 08:38:13;;;;;;;22.47;12.87;;;9.50;99.90;;;;;;5060192;28;20085;-78
2023/11/23 08:40:41;;;;;;;25.93;15.17;;;9.50;99.90;;;;;;5059052;28;20061;-79
2023/11/23 08:43:18;;;;;;;;;;;;;;;;;;;;;
2023/11/23 08:45:44;;;;;;;27.03;14.67;;;9.30;99.90;;;;;;5052419;28;20045;-77
2023/11/23 08:48:15;;;;;;;32.57;15.57;;;9.30;99.90;;;;;;5052489;28;20032;-78
2023/11/23 08:50:50;;;;;;;21.50;14.40;;;9.30;99.90;;;;;;5050441;28;20017;-78
2023/11/23 08:53:20;;;;;;;26.03;15.80;;;9.30;99.90;;;;;;5066615;28;20033;-78
2023/11/23 08:55:51;;;;;;;27.17;14.47;;;9.40;99.90;;;;;;5054345;28;20040;-80
2023/11/23 08:58:29;;;;;;;;;;;;;;;;;;;;;
2023/11/23 09:00:55;;;;;;;22.90;13.27;;;9.50;99.90;;;;;;5052608;28;20029;-78
2023/11/23 09:03:24;;;;;;;23.23;13.93;;;9.50;99.90;;;;;;5054494;28;20014;-79
2023/11/23 09:06:02;;;;;;;;;;;;;;;;;;;;;
2023/11/23 09:08:33;;;;;;;27.50;13.13;;;9.60;99.90;;;;;;5053357;28;20068;-78
2023/11/23 09:11:01;;;;;;;28.37;13.53;;;9.60;99.90;;;;;;5053108;28;20052;-78
2023/11/23 09:13:45;;;;;;;23.63;13.83;;;9.60;99.90;;;;;;5068254;28;20025;-77
2023/11/23 09:16:13;;;;;;;20.73;13.30;;;9.60;99.90;;;;;;5053220;28;20064;-80
2023/11/23 09:18:40;;;;;;;26.80;14.30;;;9.60;99.90;;;;;;5066332;28;20021;-79
2023/11/23 09:24:14;;;;;;;27.70;14.83;;;9.70;99.90;;;;;;5309832;23;20056;-80
2023/11/23 09:27:33;;;;;;;22.43;12.77;;;9.90;99.90;;;;;;5027666;28;20029;-77
2023/11/23 09:30:03;;;;;;;30.10;13.83;;;9.80;99.90;;;;;;5037997;28;20018;-78
2023/11/23 09:32:31;;;;;;;20.37;12.83;;;9.90;99.90;;;;;;5042481;28;20065;-79
2023/11/23 09:34:59;;;;;;;28.47;14.20;;;9.90;99.90;;;;;;5023453;28;20052;-78
2023/11/23 09:37:33;;;;;;;20.53;12.33;;;9.80;99.90;;;;;;5043063;28;20025;-78
2023/11/23 09:39:58;;;;;;;20.60;12.40;;;9.90;99.90;;;;;;5040331;28;20014;-77
2023/11/23 09:42:41;;;;;;;;;;;;;;;;;;;;;
2023/11/23 09:45:12;;;;;;;17.73;12.00;;;9.90;99.90;;;;;;5023518;28;20044;-78
2023/11/23 09:47:38;;;;;;;22.77;12.60;;;9.90;99.90;;;;;;5026047;28;20038;-78
2023/11/23 09:52:41;;;;;;;25.23;12.07;;;9.90;99.90;;;;;;5133332;22;20052;-78
2023/11/23 09:55:17;;;;;;;21.90;11.97;;;9.90;99.90;;;;;;5057280;28;20033;-81
2023/11/23 09:57:52;;;;;;;26.50;13.07;;;9.90;99.90;;;;;;5058124;28;20036;-81
2023/11/23 10:00:21;;;;;;;21.23;12.37;;;9.90;99.90;;;;;;5057235;28;20042;-79
2023/11/23 10:02:55;;;;;;;19.53;11.67;;;10.00;99.90;;;;;;5057476;28;20081;-79
2023/11/23 10:05:22;;;;;;;21.20;12.77;;;10.10;99.90;;;;;;5057441;28;20017;-78
2023/11/23 10:07:50;;;;;;;22.93;11.27;;;10.00;99.90;;;;;;5074231;28;20412;-78
2023/11/23 10:10:18;;;;;;;20.90;10.73;;;10.10;99.90;;;;;;5059383;28;20028;-78
2023/11/23 10:12:47;;;;;;;18.17;11.43;;;10.00;99.90;;;;;;5058627;28;20047;-78
2023/11/23 10:15:21;;;;;;;21.93;11.00;;;10.10;99.90;;;;;;5074516;28;20037;-79
2023/11/23 10:17:50;;;;;;;21.83;11.60;;;;;;;;;;5056895;28;20029;-79
2023/11/23 10:20:26;;;;;;;16.00;10.50;;;;;;;;;;5056592;28;20029;-78
2023/11/23 10:22:53;;;;;;;21.23;11.23;;;;;;;;;;5058320;28;20025;-79
2023/11/23 10:25:24;;;;;;;16.83;10.77;;;;;;;;;;5056543;28;20035;-79
2023/11/23 10:27:55;;;;;;;20.57;10.87;;;;;;;;;;5064813;28;20040;-78
2023/11/23 10:30:37;;;;;;;14.20;10.17;;;;;;;;;;5054672;28;20032;-79
2023/11/23 10:33:33;;;;;;;;;;;;;;;;;;;;;
2023/11/23 10:36:04;;;;;;;18.83;10.37;;;;;;;;;;5076689;28;20296;-79
2023/11/23 10:38:38;;;;;;;18.83;10.60;;;;;;;;;;5056731;28;20096;-77
2023/11/23 10:41:06;;;;;;;15.57;9.60;;;;;;;;;;5057797;28;20013;-80
2023/11/23 10:43:38;;;;;;;17.10;9.60;;;;;;;;;;5058841;28;20029;-78
2023/11/23 10:46:11;;;;;;;19.20;9.32;;;;;;;;;;5058601;28;20051;-84
2023/11/23 10:48:37;;;;;;;;;;;;;;;;;;5058812;28;20060;-82
2023/11/23 10:51:09;;;;;;;20.43;9.60;;;;;;;;;;5056766;28;19916;-79
2023/11/23 10:53:44;;;;;;;;;;;;;;;;;;5077811;28;20013;-79
2023/11/23 10:56:34;;;;;;;13.27;9.17;;;;;;;;;;5067393;28;19901;-77
2023/11/23 10:59:03;;;;;;;17.43;9.47;;;;;;;;;;5056744;28;20029;-79
2023/11/23 11:01:34;;;;;;;21.40;9.50;;;;;;;;;;5056437;28;20005;-77
2023/11/23 11:04:02;;;;;;;13.53;9.50;;;;;;;;;;5073338;28;20276;-79
2023/11/23 11:06:40;;;;;;;17.03;9.30;;;;;;;;;;5052596;28;20006;-80
2023/11/23 11:09:22;;;;;;;18.47;9.07;;;;;;;;;;5057450;28;20040;-78
2023/11/23 11:12:00;;;;;;;17.75;8.98;;;;;;;;;;5060032;28;20063;-77
2023/11/23 11:14:33;;;;;;;12.73;7.70;;;;;;;;;;5077557;28;20021;-82
2023/11/23 11:17:19;;;;;;;10.50;7.17;;;;;;;;;;5057657;28;20016;-79
2023/11/23 11:19:49;;;;;;;13.63;8.20;;;;;;;;;;5078573;28;20037;-79
2023/11/23 11:22:17;;;;;;;11.13;8.07;;;;;;;;;;5057136;28;20013;-84
2023/11/23 11:24:46;;;;;;;11.10;6.93;;;;;;;;;;5075119;28;20038;-81
2023/11/23 11:27:12;;;;;;;14.30;7.33;;;;;;;;;;5059031;28;20093;-83
2023/11/23 11:29:53;;;;;;;17.90;7.20;;;;;;;;;;5055512;28;20013;-82
2023/11/23 11:32:20;;;;;;;15.80;7.10;;;;;;;;;;5058149;28;20027;-83
2023/11/23 11:34:46;;;;;;;15.57;7.63;;;;;;;;;;5055477;28;20010;-79
2023/11/23 11:37:13;;;;;;;9.80;6.30;;;;;;;;;;5058309;28;20029;-79
2023/11/23 11:39:39;;;;;;;13.67;6.70;;;;;;;;;;5077710;28;20005;-80
2023/11/23 11:42:06;;;;;;;9.20;6.23;;;;;;;;;;5059334;28;20012;-78
2023/11/23 11:44:35;;;;;;;15.53;6.93;;;;;;;;;;5057885;28;20032;-81
2023/11/23 11:47:03;;;;;;;13.97;7.00;;;;;;;;;;5055301;28;20080;-78
2023/11/23 11:49:32;;;;;;;9.40;6.30;;;;;;;;;;5053569;28;20021;-79
2023/11/23 11:52:00;;;;;;;11.47;6.43;;;;;;;;;;5058579;28;20033;-80
2023/11/23 11:54:26;;;;;;;15.00;6.87;;;;;;;;;;5052237;28;20046;-79
2023/11/23 12:18:28;;;;;;;11.37;5.37;;;;;;;;;;5287058;23;20320;-80
2023/11/23 12:20:57;;;;;;;12.13;6.60;;;;;;;;;;5034293;28;20044;-80
2023/11/23 12:23:26;;;;;;;11.40;5.73;;;;;;;;;;5032250;28;20026;-79
2023/11/23 12:25:55;;;;;;;9.00;6.20;;;;;;;;;;5033402;28;20050;-78
2023/11/23 12:28:26;;;;;;;11.33;6.77;;;;;;;;;;5052092;28;20081;-79
2023/11/23 12:31:04;;;;;;;7.53;5.57;;;;;;;;;;5050440;28;20049;-81
2023/11/23 12:33:33;;;;;;;10.10;5.87;;;;;;;;;;5032909;28;20056;-80
2023/11/23 12:36:00;;;;;;;15.83;6.60;;;;;;;;;;5033278;28;20053;-78
2023/11/23 12:38:28;;;;;;;12.03;5.67;;;;;;;;;;5036812;28;20057;-77
2023/11/23 12:41:00;;;;;;;10.20;6.00;;;;;;;;;;5033062;28;20065;-78
2023/11/23 12:43:29;;;;;;;11.57;6.13;;;;;;;;;;5033632;28;20065;-79
2023/11/23 12:45:55;;;;;;;13.53;5.87;;;;;;;;;;5034953;28;20045;-81
2023/11/23 12:48:21;;;;;;;12.83;6.00;;;;;;;;;;5034171;28;20032;-78
2023/11/23 12:50:58;;;;;;;11.37;5.67;;;;;;;;;;5034054;28;20021;-80
2023/11/23 12:53:26;;;;;;;9.13;5.33;;;;;;;;;;5034332;28;20026;-78
2023/11/23 12:55:52;;;;;;;6.43;4.97;;;;;;;;;;5031053;28;20030;-79
2023/11/23 12:58:19;;;;;;;9.33;5.23;;;;;;;;;;5029059;28;20052;-76
2023/11/23 13:00:47;;;;;;;11.77;5.07;;;;;;;;;;5030833;28;20026;-80
2023/11/23 13:03:14;;;;;;;8.73;5.40;;;;;;;;;;5030884;28;20026;-78
2023/11/23 13:05:41;;;;;;;9.93;5.10;;;;;;;;;;5031604;28;20051;-77
2023/11/23 13:08:08;;;;;;;9.33;5.40;;;;;;;;;;5032293;28;20022;-79
2023/11/23 13:10:34;;;;;;;9.27;4.87;;;;;;;;;;5026048;28;20048;-79
2023/11/23 13:13:00;;;;;;;8.73;5.40;;;;;;;;;;5030664;28;20018;-79
2023/11/23 13:15:28;;;;;;;11.80;6.13;;;;;;;;;;5033980;28;20034;-77
2023/11/23 13:17:54;;;;;;;9.37;5.20;;;;;;;;;;5035044;28;20017;-81
2023/11/23 13:20:24;;;;;;;10.43;5.50;;;;;;;;;;5033569;28;20064;-81
2023/11/23 13:22:50;;;;;;;10.77;5.70;;;;;;;;;;5035741;28;20064;-78
2023/11/23 13:25:18;;;;;;;12.27;5.10;;;;;;;;;;5034626;28;20056;-78
2023/11/23 13:27:59;;;;;;;7.93;4.40;;;;;;;;;;5035483;28;20065;-78
2023/11/23 13:30:27;;;;;;;8.00;3.77;;;;;;;;;;5046637;28;20022;-79
2023/11/23 13:33:02;;;;;;;10.10;4.70;;;;;;;;;;5035982;28;20338;-78
2023/11/23 13:35:31;;;;;;;7.87;4.80;;;;;;;;;;5034118;28;20018;-81
2023/11/23 13:37:57;;;;;;;14.57;4.33;;;;;;;;;;5034962;28;20089;-78
2023/11/23 13:40:27;;;;;;;8.40;3.97;;;;;;;;;;5034684;28;20034;-77
2023/11/23 13:42:53;;;;;;;11.00;4.27;;;;;;;;;;5032709;28;20026;-79
2023/11/23 13:45:22;;;;;;;6.30;3.63;;;;;;;;;;5034609;28;20029;-78
2023/11/23 13:47:50;;;;;;;7.13;3.37;;;;;;;;;;5035396;28;20049;-79
2023/11/23 13:50:18;;;;;;;7.97;3.70;;;;;;;;;;5046068;28;20025;-77